Minot AFB, ND

5:36 PM CST on November 15, 2019 (GMT -0600)
Minot Air Force Base

Weather History for KMIB - September, 2019

Change the Weather History Date:

Monday, September 30, 2019

  Actual Average Record
Temperature  
Mean Temperature 40 °F -  
Max Temperature 43 °F 60 °F 82 °F (2005)
Min Temperature 37 °F 34 °F 21 °F (2003)
Degree Days  
Heating Degree Days 25    
Moisture  
Dew Point 40 °F    
Average Humidity 94    
Maximum Humidity 100    
Minimum Humidity 87    
Precipitation  
Precipitation 0.17 in - - ()
Sea Level Pressure  
Sea Level Pressure 29.96 in    
Wind  
Wind Speed 12 mph (North)    
Max Wind Speed 25 mph    
Max Gust Speed 32 mph    
Visibility 9 miles    
Events Rain    
Averages and records for this station are not official NWS values.
T = Trace of Precipitation, MM = Missing Value Source: NWS Daily Summary

Daily Weather History Graph

Daily Weather History Graph

Search for Another Location

Airport or City:

Astronomy

Sep. 30, 2019 Rise Set
Actual Time 7:43 AM CDT 7:26 PM CDT
Civil Twilight 7:11 AM CDT 7:57 PM CDT
Nautical Twilight 6:35 AM CDT 8:34 PM CDT
Astronomical Twilight 5:58 AM CDT 9:11 PM CDT
Moon 9:57 AM CDT (9/30) 8:53 PM CDT (9/30)
Length of Visible Light 12h 46m
Length of Day
11h 43m
Waxing Crescent, 6% of the Moon is Illuminated
Sep 30
Waxing Crescent
Oct 5
First Quarter
Oct 13
Full
Oct 21
Last Quarter
Oct 27
New

Hourly Weather History & Observations

Time (CDT) Temp. Windchill Dew Point Humidity Pressure Visibility Wind Dir Wind Speed Gust Speed Precip Events Conditions
12:11 AM 42.8 °F 35.4 °F 41.0 °F 93% 29.87 in 10.0 mi East 15.0 mph - N/A   Overcast
12:21 AM 42.8 °F 35.1 °F 41.0 °F 93% 29.88 in 10.0 mi East 16.1 mph - N/A   Overcast
12:56 AM 42.1 °F 39.2 °F 41.0 °F 96% 29.95 in 10.0 mi ENE 4.6 mph - N/A   Overcast
1:09 AM 42.8 °F 38.6 °F 41.0 °F 93% 29.95 in 9.0 mi NE 6.9 mph - N/A Rain Light Rain
1:29 AM 42.8 °F 37.5 °F 41.0 °F 93% 29.95 in 4.0 mi NNE 9.2 mph - N/A Rain Light Rain
1:34 AM 42.8 °F 38.0 °F 41.0 °F 93% 29.96 in 5.0 mi NNE 8.1 mph - N/A Rain Light Rain
1:44 AM 42.8 °F 37.5 °F 41.0 °F 93% 29.95 in 4.0 mi NE 9.2 mph - N/A Rain Light Rain
1:56 AM 41.9 °F 35.9 °F 40.8 °F 96% 29.93 in 5.0 mi NE 10.4 mph - 0.01 in Rain Light Rain
2:06 AM 42.8 °F 35.4 °F 41.0 °F 93% 29.92 in 8.0 mi ENE 15.0 mph - N/A Rain Light Rain
2:41 AM 42.8 °F 36.6 °F 41.0 °F 93% 29.93 in 10.0 mi ENE 11.5 mph - N/A Rain Light Rain
2:56 AM 41.9 °F 35.9 °F 41.2 °F 97% 29.91 in 10.0 mi NE 10.4 mph - 0.00 in Rain Light Rain
3:11 AM 42.8 °F 37.0 °F 41.0 °F 93% 29.89 in 10.0 mi ENE 10.4 mph - N/A Rain Light Rain
3:21 AM 41.0 °F 34.7 °F 41.0 °F 100% 29.93 in 10.0 mi NE 10.4 mph - N/A Rain Light Rain
3:37 AM 42.8 °F 36.6 °F 41.0 °F 93% 29.90 in 10.0 mi NNE 11.5 mph - N/A   Overcast
3:38 AM 42.8 °F 37.0 °F 41.0 °F 93% 29.90 in 10.0 mi NNE 10.4 mph - N/A   Light Drizzle
3:53 AM 42.8 °F 36.2 °F 41.0 °F 93% 29.93 in 10.0 mi North 12.7 mph - N/A   Light Drizzle
3:56 AM 41.7 °F 36.1 °F 40.6 °F 96% 29.94 in 10.0 mi North 9.2 mph - 0.01 in Rain Light Rain
4:15 AM 41.0 °F 33.5 °F 41.0 °F 100% 29.92 in 10.0 mi NNE 13.8 mph - N/A   Overcast
4:45 AM 41.0 °F 33.5 °F 41.0 °F 100% 29.92 in 10.0 mi North 13.8 mph - N/A   Light Drizzle
4:56 AM 41.4 °F 36.8 °F 40.6 °F 97% 29.94 in 10.0 mi North 6.9 mph - 0.00 in Rain Light Rain
5:06 AM 41.0 °F 35.8 °F 41.0 °F 100% 29.94 in 8.0 mi NE 8.1 mph - N/A   Overcast
5:11 AM 41.0 °F 35.2 °F 41.0 °F 100% 29.93 in 6.0 mi NE 9.2 mph - N/A   Overcast
5:17 AM 41.0 °F 34.7 °F 41.0 °F 100% 29.90 in 6.0 mi NE 10.4 mph - N/A Rain Light Rain
5:32 AM 41.0 °F 34.7 °F 41.0 °F 100% 29.92 in 7.0 mi NNE 10.4 mph - N/A Rain Light Rain
5:56 AM 40.8 °F 32.6 °F 40.1 °F 97% 29.83 in 10.0 mi NNE 16.1 mph - 0.00 in   Light Drizzle
6:03 AM 41.0 °F 32.5 °F 39.2 °F 93% 29.83 in 10.0 mi NNE 17.3 mph 24.2 mph N/A   Overcast
6:16 AM 41.0 °F 32.8 °F 39.2 °F 93% 29.81 in 10.0 mi North 16.1 mph 24.2 mph N/A   Overcast
6:21 AM 41.0 °F 32.8 °F 39.2 °F 93% 29.87 in 10.0 mi North 16.1 mph 24.2 mph N/A   Overcast
6:43 AM 41.0 °F 32.8 °F 39.2 °F 93% 29.86 in 10.0 mi ENE 16.1 mph - N/A Rain Light Rain
6:48 AM 41.0 °F 31.6 °F 39.2 °F 93% 29.85 in 10.0 mi ENE 20.7 mph 25.3 mph N/A Rain Light Rain
6:56 AM 40.3 °F 32.2 °F 39.6 °F 97% 29.81 in 10.0 mi NE 15.0 mph 25.3 mph 0.01 in Rain Light Rain
6:59 AM 41.0 °F 34.3 °F 39.2 °F 93% 29.82 in 10.0 mi NNE 11.5 mph - N/A Rain Light Rain
7:04 AM 41.0 °F 34.3 °F 39.2 °F 93% 29.86 in 10.0 mi NNW 11.5 mph - N/A Rain Light Rain
7:10 AM 41.0 °F 33.9 °F 39.2 °F 93% 29.91 in 10.0 mi North 12.7 mph - N/A   Overcast
7:14 AM 41.0 °F 33.5 °F 39.2 °F 93% 29.92 in 10.0 mi NW 13.8 mph - N/A   Overcast
7:29 AM 41.0 °F 34.7 °F 39.2 °F 93% 29.96 in 10.0 mi NW 10.4 mph - N/A   Overcast
8:05 AM 41.0 °F 34.3 °F 39.2 °F 93% 29.91 in 10.0 mi NNE 11.5 mph - N/A Rain Light Rain
8:21 AM 41.0 °F 30.7 °F 39.2 °F 93% 29.86 in 3.0 mi ENE 25.3 mph 28.8 mph N/A Rain Rain
8:26 AM 41.0 °F 30.9 °F 39.2 °F 93% 29.83 in 4.0 mi East 24.2 mph 31.1 mph N/A Rain Rain
8:36 AM 41.0 °F 34.7 °F 39.2 °F 93% 29.84 in 9.0 mi ENE 10.4 mph 32.2 mph N/A Rain Light Rain
8:41 AM 41.0 °F 33.1 °F 39.2 °F 93% 29.88 in 10.0 mi WNW 15.0 mph 26.5 mph N/A Rain Light Rain
8:56 AM 40.8 °F 34.5 °F 40.1 °F 97% 29.95 in 10.0 mi NNW 10.4 mph - 0.05 in Rain Light Rain
9:11 AM 41.0 °F 34.7 °F 41.0 °F 100% 29.95 in 10.0 mi North 10.4 mph - N/A Rain Light Rain
9:43 AM 41.0 °F 34.3 °F 41.0 °F 100% 29.93 in 10.0 mi North 11.5 mph - N/A   Overcast
9:53 AM 41.0 °F 34.3 °F 41.0 °F 100% 29.94 in 10.0 mi NNE 11.5 mph - N/A   Overcast
9:56 AM 41.0 °F 34.3 °F 40.3 °F 97% 29.94 in 10.0 mi North 11.5 mph - 0.01 in   Overcast
10:32 AM 41.0 °F 34.7 °F 41.0 °F 100% 29.95 in 10.0 mi North 10.4 mph - N/A Rain Light Rain
10:52 AM 41.0 °F 33.9 °F 41.0 °F 100% 29.95 in 8.0 mi North 12.7 mph - N/A Rain Light Rain
10:56 AM 41.0 °F 33.9 °F 40.3 °F 97% 29.95 in 8.0 mi North 12.7 mph - 0.00 in Rain Light Rain
11:15 AM 41.0 °F 34.3 °F 41.0 °F 100% 29.94 in 4.0 mi North 11.5 mph - N/A   Light Drizzle
11:53 AM 42.8 °F 37.0 °F 41.0 °F 93% 29.92 in 10.0 mi NE 10.4 mph - N/A   Overcast
11:56 AM 41.7 °F 36.1 °F 41.0 °F 97% 29.93 in 10.0 mi NE 9.2 mph - 0.00 in   Overcast
12:06 PM 42.8 °F 36.2 °F 41.0 °F 93% 29.92 in 10.0 mi NNE 12.7 mph - N/A   Overcast
12:26 PM 42.8 °F 37.0 °F 41.0 °F 93% 29.91 in 10.0 mi NNE 10.4 mph - N/A   Overcast
12:41 PM 42.8 °F 37.5 °F 42.8 °F 100% 29.93 in 10.0 mi North 9.2 mph - N/A   Overcast
12:56 PM 43.0 °F 38.2 °F 41.7 °F 95% 29.95 in 10.0 mi NNW 8.1 mph - N/A   Overcast
1:30 PM 42.8 °F 36.6 °F 41.0 °F 93% 29.93 in 10.0 mi North 11.5 mph - N/A Rain Light Rain
1:31 PM 42.8 °F 36.6 °F 41.0 °F 93% 29.93 in 10.0 mi North 11.5 mph - N/A Rain Light Rain
1:36 PM 42.8 °F 36.2 °F 41.0 °F 93% 29.94 in 8.0 mi NNW 12.7 mph - N/A   Overcast
1:51 PM 42.8 °F 37.5 °F 41.0 °F 93% 29.93 in 9.0 mi North 9.2 mph - N/A Rain Light Rain
1:56 PM 42.8 °F 37.0 °F 41.5 °F 95% 29.93 in 10.0 mi NNW 10.4 mph - 0.00 in Rain Light Rain
2:06 PM 42.8 °F 37.0 °F 41.0 °F 93% 29.94 in 10.0 mi NNW 10.4 mph - N/A Rain Light Rain
2:16 PM 42.8 °F 37.0 °F 41.0 °F 93% 29.94 in 10.0 mi NNW 10.4 mph - N/A Rain Light Rain
2:31 PM 42.8 °F 37.5 °F 41.0 °F 93% 29.95 in 10.0 mi NNW 9.2 mph - N/A Rain Light Rain
2:51 PM 42.8 °F 37.0 °F 41.0 °F 93% 29.96 in 10.0 mi NNW 10.4 mph - N/A   Light Drizzle
2:56 PM 42.4 °F 36.5 °F 41.2 °F 95% 29.96 in 10.0 mi NNW 10.4 mph - 0.01 in Rain Light Rain
3:06 PM 42.8 °F 37.5 °F 41.0 °F 93% 29.96 in 7.0 mi NNW 9.2 mph - N/A Rain Rain
3:11 PM 42.8 °F 37.0 °F 41.0 °F 93% 29.97 in 6.0 mi NW 10.4 mph - N/A Rain Rain
3:26 PM 42.8 °F 37.5 °F 41.0 °F 93% 29.97 in 7.0 mi NW 9.2 mph - N/A Rain Rain
3:31 PM 42.8 °F 37.0 °F 41.0 °F 93% 29.98 in 6.0 mi NW 10.4 mph - N/A Rain Rain
3:33 PM 42.8 °F 37.0 °F 41.0 °F 93% 29.99 in 7.0 mi NW 10.4 mph - N/A Rain Light Rain
3:48 PM 42.8 °F 37.0 °F 41.0 °F 93% 29.98 in 10.0 mi NW 10.4 mph - N/A Rain Light Rain
3:53 PM 42.8 °F 37.0 °F 41.0 °F 93% 29.98 in 10.0 mi NW 10.4 mph - N/A Rain Light Rain
3:56 PM 42.1 °F 36.6 °F 40.5 °F 94% 29.98 in 10.0 mi NW 9.2 mph - 0.06 in Rain Light Rain
4:06 PM 42.8 °F 36.6 °F 41.0 °F 93% 29.99 in 10.0 mi NNW 11.5 mph - N/A Rain Light Rain
4:11 PM 42.8 °F 36.2 °F 41.0 °F 93% 29.98 in 10.0 mi NNW 12.7 mph - N/A Rain Light Rain
4:21 PM 42.8 °F 36.2 °F 41.0 °F 93% 29.97 in 10.0 mi NNW 12.7 mph - N/A Rain Light Rain
4:26 PM 42.8 °F 36.2 °F 41.0 °F 93% 29.96 in 10.0 mi North 12.7 mph - N/A Rain Light Rain
4:34 PM 42.8 °F 35.8 °F 41.0 °F 93% 29.97 in 10.0 mi NNW 13.8 mph - N/A   Mostly Cloudy
4:39 PM 42.8 °F 35.8 °F 41.0 °F 93% 29.98 in 10.0 mi NNW 13.8 mph - N/A   Mostly Cloudy
4:44 PM 42.8 °F 36.2 °F 41.0 °F 93% 29.98 in 10.0 mi NNW 12.7 mph - N/A   Mostly Cloudy
4:56 PM 42.4 °F 36.1 °F 40.6 °F 93% 29.99 in 10.0 mi NNW 11.5 mph - 0.01 in   Mostly Cloudy
5:01 PM 42.8 °F 37.0 °F 41.0 °F 93% 29.99 in 10.0 mi NNW 10.4 mph - N/A   Mostly Cloudy
5:34 PM 42.8 °F 37.0 °F 39.2 °F 87% 30.02 in 10.0 mi NW 10.4 mph - N/A   Light Drizzle
5:39 PM 42.8 °F 36.2 °F 39.2 °F 87% 30.03 in 10.0 mi NW 12.7 mph - N/A   Light Drizzle
5:43 PM 42.8 °F 36.2 °F 39.2 °F 87% 30.03 in 10.0 mi WNW 12.7 mph - N/A   Overcast
5:48 PM 42.8 °F 38.0 °F 39.2 °F 87% 30.03 in 10.0 mi WNW 8.1 mph - N/A   Overcast
5:56 PM 42.1 °F 34.5 °F 39.6 °F 91% 30.05 in 10.0 mi WNW 15.0 mph - 0.00 in   Overcast
6:31 PM 41.0 °F 33.5 °F 39.2 °F 93% 30.05 in 10.0 mi NW 13.8 mph - N/A   Overcast
6:56 PM 41.0 °F 34.3 °F 37.9 °F 89% 30.07 in 10.0 mi WNW 11.5 mph - N/A   Overcast
7:05 PM 41.0 °F 34.3 °F 37.4 °F 87% 30.06 in 10.0 mi NW 11.5 mph - N/A   Overcast
7:56 PM 40.1 °F 33.2 °F 37.4 °F 90% 30.08 in 10.0 mi NW 11.5 mph - N/A   Overcast
8:16 PM 39.2 °F 32.5 °F 37.4 °F 93% 30.09 in 10.0 mi WNW 10.4 mph - N/A   Overcast
8:56 PM 39.6 °F 32.5 °F 36.9 °F 90% 30.11 in 10.0 mi WNW 11.5 mph - N/A   Overcast
9:11 PM 39.2 °F 32.5 °F 37.4 °F 93% 30.12 in 10.0 mi West 10.4 mph - N/A   Overcast
9:16 PM 39.2 °F 32.0 °F 35.6 °F 87% 30.12 in 10.0 mi WNW 11.5 mph - N/A   Overcast
9:36 PM 39.2 °F 32.5 °F 35.6 °F 87% 30.12 in 10.0 mi WNW 10.4 mph - N/A   Overcast
9:56 PM 39.0 °F 32.8 °F 36.1 °F 89% 30.13 in 10.0 mi WNW 9.2 mph - N/A   Overcast
10:56 PM 38.3 °F 31.9 °F 36.0 °F 91% 30.12 in 10.0 mi WNW 9.2 mph - N/A   Mostly Cloudy
11:11 PM 37.4 °F 31.4 °F 35.6 °F 93% 30.13 in 10.0 mi WNW 8.1 mph - N/A   Mostly Cloudy
11:21 PM 37.4 °F 31.4 °F 35.6 °F 93% 30.13 in 10.0 mi WNW 8.1 mph - N/A   Scattered Clouds
11:36 PM 37.4 °F 30.3 °F 35.6 °F 93% 30.13 in 10.0 mi WNW 10.4 mph - N/A   Mostly Cloudy
11:56 PM 38.1 °F 31.2 °F 36.5 °F 94% 30.12 in 10.0 mi NW 10.4 mph - N/A   Overcast